sensor_id;sensor_type;location;lat;lon;timestamp;P1;durP1;ratioP1;P2;durP2;ratioP2
21458;SDS011;10891;49.350;19.386;2023-09-18T00:02:26;17.42;;;11.48;;
21458;SDS011;10891;49.350;19.386;2023-09-18T00:04:56;14.27;;;10.05;;
21458;SDS011;10891;49.350;19.386;2023-09-18T00:07:23;18.17;;;11.10;;
21458;SDS011;10891;49.350;19.386;2023-09-18T00:09:51;17.83;;;11.10;;
21458;SDS011;10891;49.350;19.386;2023-09-18T00:12:18;16.25;;;10.80;;
21458;SDS011;10891;49.350;19.386;2023-09-18T00:14:47;15.02;;;10.70;;
21458;SDS011;10891;49.350;19.386;2023-09-18T00:17:16;17.05;;;10.65;;
21458;SDS011;10891;49.350;19.386;2023-09-18T00:19:44;14.60;;;10.60;;
21458;SDS011;10891;49.350;19.386;2023-09-18T00:22:11;18.30;;;11.85;;
21458;SDS011;10891;49.350;19.386;2023-09-18T00:24:38;15.77;;;11.13;;
21458;SDS011;10891;49.350;19.386;2023-09-18T00:27:06;19.13;;;10.32;;
21458;SDS011;10891;49.350;19.386;2023-09-18T00:29:33;17.15;;;10.88;;
21458;SDS011;10891;49.350;19.386;2023-09-18T00:32:00;17.60;;;10.55;;
21458;SDS011;10891;49.350;19.386;2023-09-18T00:34:29;15.02;;;11.18;;
21458;SDS011;10891;49.350;19.386;2023-09-18T00:36:57;16.17;;;10.93;;
21458;SDS011;10891;49.350;19.386;2023-09-18T00:39:25;17.58;;;12.30;;
21458;SDS011;10891;49.350;19.386;2023-09-18T00:41:52;19.80;;;12.45;;
21458;SDS011;10891;49.350;19.386;2023-09-18T00:44:20;19.55;;;12.38;;
21458;SDS011;10891;49.350;19.386;2023-09-18T00:46:47;22.20;;;11.88;;
21458;SDS011;10891;49.350;19.386;2023-09-18T00:49:15;22.77;;;13.68;;
21458;SDS011;10891;49.350;19.386;2023-09-18T00:51:44;20.80;;;12.65;;
21458;SDS011;10891;49.350;19.386;2023-09-18T00:54:12;18.52;;;12.07;;
21458;SDS011;10891;49.350;19.386;2023-09-18T00:56:41;17.48;;;11.15;;
21458;SDS011;10891;49.350;19.386;2023-09-18T00:59:09;16.05;;;11.68;;
21458;SDS011;10891;49.350;19.386;2023-09-18T01:01:36;18.38;;;12.23;;
21458;SDS011;10891;49.350;19.386;2023-09-18T01:04:04;16.30;;;12.15;;
21458;SDS011;10891;49.350;19.386;2023-09-18T01:06:31;18.58;;;12.20;;
21458;SDS011;10891;49.350;19.386;2023-09-18T01:08:59;18.77;;;12.20;;
21458;SDS011;10891;49.350;19.386;2023-09-18T01:11:31;23.25;;;12.40;;
21458;SDS011;10891;49.350;19.386;2023-09-18T01:14:04;17.83;;;12.40;;
21458;SDS011;10891;49.350;19.386;2023-09-18T01:16:36;16.73;;;12.07;;
21458;SDS011;10891;49.350;19.386;2023-09-18T01:19:06;15.98;;;11.30;;
21458;SDS011;10891;49.350;19.386;2023-09-18T01:21:33;17.60;;;11.27;;
21458;SDS011;10891;49.350;19.386;2023-09-18T01:24:02;17.55;;;11.95;;
21458;SDS011;10891;49.350;19.386;2023-09-18T01:26:29;19.75;;;12.45;;
21458;SDS011;10891;49.350;19.386;2023-09-18T01:28:56;20.33;;;11.48;;
21458;SDS011;10891;49.350;19.386;2023-09-18T01:31:23;19.42;;;11.90;;
21458;SDS011;10891;49.350;19.386;2023-09-18T01:33:51;20.55;;;11.85;;
21458;SDS011;10891;49.350;19.386;2023-09-18T01:36:19;17.75;;;11.70;;
21458;SDS011;10891;49.350;19.386;2023-09-18T01:38:47;20.48;;;11.13;;
21458;SDS011;10891;49.350;19.386;2023-09-18T01:41:17;19.65;;;11.15;;
21458;SDS011;10891;49.350;19.386;2023-09-18T01:43:44;16.60;;;10.68;;
21458;SDS011;10891;49.350;19.386;2023-09-18T01:46:11;15.05;;;10.90;;
21458;SDS011;10891;49.350;19.386;2023-09-18T01:48:44;18.88;;;11.38;;
21458;SDS011;10891;49.350;19.386;2023-09-18T01:51:13;18.35;;;10.48;;
21458;SDS011;10891;49.350;19.386;2023-09-18T01:53:40;18.80;;;11.13;;
21458;SDS011;10891;49.350;19.386;2023-09-18T01:56:08;19.52;;;11.82;;
21458;SDS011;10891;49.350;19.386;2023-09-18T01:58:36;17.15;;;11.68;;
21458;SDS011;10891;49.350;19.386;2023-09-18T02:01:03;15.77;;;11.45;;
21458;SDS011;10891;49.350;19.386;2023-09-18T02:03:30;14.55;;;10.75;;
21458;SDS011;10891;49.350;19.386;2023-09-18T02:05:58;17.98;;;12.30;;
21458;SDS011;10891;49.350;19.386;2023-09-18T02:08:25;19.00;;;12.77;;
21458;SDS011;10891;49.350;19.386;2023-09-18T02:10:52;22.38;;;13.30;;
21458;SDS011;10891;49.350;19.386;2023-09-18T02:13:19;23.15;;;12.70;;
21458;SDS011;10891;49.350;19.386;2023-09-18T02:15:48;22.65;;;13.60;;
21458;SDS011;10891;49.350;19.386;2023-09-18T02:18:15;26.25;;;14.07;;
21458;SDS011;10891;49.350;19.386;2023-09-18T02:20:42;24.88;;;14.80;;
21458;SDS011;10891;49.350;19.386;2023-09-18T02:23:15;22.15;;;13.80;;
21458;SDS011;10891;49.350;19.386;2023-09-18T02:25:42;26.88;;;14.85;;
21458;SDS011;10891;49.350;19.386;2023-09-18T02:28:09;48.85;;;14.85;;
21458;SDS011;10891;49.350;19.386;2023-09-18T02:30:36;29.45;;;13.85;;
21458;SDS011;10891;49.350;19.386;2023-09-18T02:33:05;33.38;;;13.80;;
21458;SDS011;10891;49.350;19.386;2023-09-18T02:35:32;21.67;;;14.25;;
21458;SDS011;10891;49.350;19.386;2023-09-18T02:37:59;20.70;;;12.45;;
21458;SDS011;10891;49.350;19.386;2023-09-18T02:40:27;30.48;;;13.65;;
21458;SDS011;10891;49.350;19.386;2023-09-18T02:42:55;24.15;;;13.73;;
21458;SDS011;10891;49.350;19.386;2023-09-18T02:45:22;26.65;;;13.43;;
21458;SDS011;10891;49.350;19.386;2023-09-18T02:47:49;22.05;;;12.75;;
21458;SDS011;10891;49.350;19.386;2023-09-18T02:50:17;18.92;;;11.88;;
21458;SDS011;10891;49.350;19.386;2023-09-18T02:52:45;16.88;;;11.40;;
21458;SDS011;10891;49.350;19.386;2023-09-18T02:55:12;19.88;;;12.80;;
21458;SDS011;10891;49.350;19.386;2023-09-18T02:57:39;16.38;;;11.25;;
21458;SDS011;10891;49.350;19.386;2023-09-18T03:00:07;17.23;;;11.07;;
21458;SDS011;10891;49.350;19.386;2023-09-18T03:02:34;18.05;;;11.02;;
21458;SDS011;10891;49.350;19.386;2023-09-18T03:05:01;16.88;;;11.15;;
21458;SDS011;10891;49.350;19.386;2023-09-18T03:07:30;18.25;;;11.50;;
21458;SDS011;10891;49.350;19.386;2023-09-18T03:09:57;18.55;;;12.48;;
21458;SDS011;10891;49.350;19.386;2023-09-18T03:12:25;16.65;;;12.05;;
21458;SDS011;10891;49.350;19.386;2023-09-18T03:14:53;19.27;;;12.73;;
21458;SDS011;10891;49.350;19.386;2023-09-18T03:17:20;21.15;;;13.35;;
21458;SDS011;10891;49.350;19.386;2023-09-18T03:19:47;17.67;;;12.52;;
21458;SDS011;10891;49.350;19.386;2023-09-18T03:22:15;18.25;;;11.98;;
21458;SDS011;10891;49.350;19.386;2023-09-18T03:24:43;16.52;;;11.40;;
21458;SDS011;10891;49.350;19.386;2023-09-18T03:27:11;18.73;;;12.80;;
21458;SDS011;10891;49.350;19.386;2023-09-18T03:29:38;19.58;;;12.43;;
21458;SDS011;10891;49.350;19.386;2023-09-18T03:32:05;19.90;;;13.70;;
21458;SDS011;10891;49.350;19.386;2023-09-18T03:34:37;20.08;;;12.30;;
21458;SDS011;10891;49.350;19.386;2023-09-18T03:37:04;20.88;;;14.73;;
21458;SDS011;10891;49.350;19.386;2023-09-18T03:39:31;22.23;;;12.63;;
21458;SDS011;10891;49.350;19.386;2023-09-18T03:42:00;20.08;;;12.57;;
21458;SDS011;10891;49.350;19.386;2023-09-18T03:44:28;21.98;;;12.35;;
21458;SDS011;10891;49.350;19.386;2023-09-18T03:46:55;20.15;;;13.70;;
21458;SDS011;10891;49.350;19.386;2023-09-18T03:49:22;23.20;;;13.27;;
21458;SDS011;10891;49.350;19.386;2023-09-18T03:51:49;21.30;;;12.75;;
21458;SDS011;10891;49.350;19.386;2023-09-18T03:54:16;18.88;;;12.57;;
21458;SDS011;10891;49.350;19.386;2023-09-18T03:56:43;19.40;;;12.90;;
21458;SDS011;10891;49.350;19.386;2023-09-18T03:59:12;18.77;;;12.68;;
21458;SDS011;10891;49.350;19.386;2023-09-18T04:01:40;18.02;;;12.70;;
21458;SDS011;10891;49.350;19.386;2023-09-18T04:04:07;20.85;;;13.05;;
21458;SDS011;10891;49.350;19.386;2023-09-18T04:06:40;24.02;;;13.02;;
21458;SDS011;10891;49.350;19.386;2023-09-18T04:09:07;27.55;;;12.93;;
21458;SDS011;10891;49.350;19.386;2023-09-18T04:11:35;29.35;;;13.20;;
21458;SDS011;10891;49.350;19.386;2023-09-18T04:14:02;24.00;;;13.55;;
21458;SDS011;10891;49.350;19.386;2023-09-18T04:16:31;29.38;;;13.65;;
21458;SDS011;10891;49.350;19.386;2023-09-18T04:19:00;26.15;;;12.52;;
21458;SDS011;10891;49.350;19.386;2023-09-18T04:21:27;24.77;;;11.82;;
21458;SDS011;10891;49.350;19.386;2023-09-18T04:23:55;24.83;;;14.32;;
21458;SDS011;10891;49.350;19.386;2023-09-18T04:26:23;25.23;;;12.88;;
21458;SDS011;10891;49.350;19.386;2023-09-18T04:28:54;28.10;;;12.25;;
21458;SDS011;10891;49.350;19.386;2023-09-18T04:31:21;21.33;;;12.50;;
21458;SDS011;10891;49.350;19.386;2023-09-18T04:33:50;36.33;;;14.10;;
21458;SDS011;10891;49.350;19.386;2023-09-18T04:36:17;77.30;;;15.57;;
21458;SDS011;10891;49.350;19.386;2023-09-18T04:38:44;51.45;;;15.88;;
21458;SDS011;10891;49.350;19.386;2023-09-18T04:41:12;49.83;;;16.25;;
21458;SDS011;10891;49.350;19.386;2023-09-18T04:43:39;63.10;;;14.63;;
21458;SDS011;10891;49.350;19.386;2023-09-18T04:46:07;55.13;;;15.30;;
21458;SDS011;10891;49.350;19.386;2023-09-18T04:48:34;48.00;;;14.73;;
21458;SDS011;10891;49.350;19.386;2023-09-18T04:51:03;39.65;;;14.85;;
21458;SDS011;10891;49.350;19.386;2023-09-18T04:53:32;32.42;;;15.07;;
21458;SDS011;10891;49.350;19.386;2023-09-18T04:55:59;26.35;;;13.85;;
21458;SDS011;10891;49.350;19.386;2023-09-18T04:58:28;24.02;;;12.70;;
21458;SDS011;10891;49.350;19.386;2023-09-18T05:00:56;29.60;;;13.52;;
21458;SDS011;10891;49.350;19.386;2023-09-18T05:03:24;30.33;;;14.45;;
21458;SDS011;10891;49.350;19.386;2023-09-18T05:05:52;30.58;;;14.52;;
21458;SDS011;10891;49.350;19.386;2023-09-18T05:08:20;32.45;;;13.30;;
21458;SDS011;10891;49.350;19.386;2023-09-18T05:10:48;29.58;;;12.55;;
21458;SDS011;10891;49.350;19.386;2023-09-18T05:13:15;28.48;;;12.65;;
21458;SDS011;10891;49.350;19.386;2023-09-18T05:15:42;26.63;;;11.35;;
21458;SDS011;10891;49.350;19.386;2023-09-18T05:18:10;19.65;;;12.02;;
21458;SDS011;10891;49.350;19.386;2023-09-18T05:20:38;26.48;;;11.93;;
21458;SDS011;10891;49.350;19.386;2023-09-18T05:23:05;20.15;;;10.23;;
21458;SDS011;10891;49.350;19.386;2023-09-18T05:25:34;24.30;;;14.25;;
21458;SDS011;10891;49.350;19.386;2023-09-18T05:28:03;21.92;;;13.20;;
21458;SDS011;10891;49.350;19.386;2023-09-18T05:30:34;20.90;;;12.70;;
21458;SDS011;10891;49.350;19.386;2023-09-18T05:33:04;17.73;;;11.02;;
21458;SDS011;10891;49.350;19.386;2023-09-18T05:35:32;23.17;;;10.70;;
21458;SDS011;10891;49.350;19.386;2023-09-18T05:38:00;19.67;;;10.20;;
21458;SDS011;10891;49.350;19.386;2023-09-18T05:40:27;27.02;;;11.00;;
21458;SDS011;10891;49.350;19.386;2023-09-18T05:42:56;21.20;;;9.80;;
21458;SDS011;10891;49.350;19.386;2023-09-18T05:45:24;21.20;;;9.68;;
21458;SDS011;10891;49.350;19.386;2023-09-18T05:47:52;14.55;;;9.15;;
21458;SDS011;10891;49.350;19.386;2023-09-18T05:50:26;12.38;;;7.32;;
21458;SDS011;10891;49.350;19.386;2023-09-18T05:52:55;12.95;;;8.13;;
21458;SDS011;10891;49.350;19.386;2023-09-18T05:55:24;12.90;;;7.70;;
21458;SDS011;10891;49.350;19.386;2023-09-18T05:57:53;13.27;;;7.60;;
21458;SDS011;10891;49.350;19.386;2023-09-18T06:00:22;9.95;;;6.65;;
21458;SDS011;10891;49.350;19.386;2023-09-18T06:02:49;10.80;;;6.53;;
21458;SDS011;10891;49.350;19.386;2023-09-18T06:05:17;8.45;;;6.22;;
21458;SDS011;10891;49.350;19.386;2023-09-18T06:07:46;6.93;;;5.72;;
21458;SDS011;10891;49.350;19.386;2023-09-18T06:10:14;7.68;;;6.13;;
21458;SDS011;10891;49.350;19.386;2023-09-18T06:12:42;7.00;;;5.82;;
21458;SDS011;10891;49.350;19.386;2023-09-18T06:15:10;6.55;;;5.90;;
21458;SDS011;10891;49.350;19.386;2023-09-18T06:17:39;7.45;;;5.85;;
21458;SDS011;10891;49.350;19.386;2023-09-18T06:20:07;6.28;;;5.60;;
21458;SDS011;10891;49.350;19.386;2023-09-18T06:22:37;11.32;;;6.13;;
21458;SDS011;10891;49.350;19.386;2023-09-18T06:25:05;9.77;;;7.07;;
21458;SDS011;10891;49.350;19.386;2023-09-18T06:27:33;11.52;;;7.55;;
21458;SDS011;10891;49.350;19.386;2023-09-18T06:30:02;10.38;;;7.50;;
21458;SDS011;10891;49.350;19.386;2023-09-18T06:32:29;13.90;;;7.82;;
21458;SDS011;10891;49.350;19.386;2023-09-18T06:34:58;13.02;;;8.70;;
21458;SDS011;10891;49.350;19.386;2023-09-18T06:37:26;12.95;;;8.50;;
21458;SDS011;10891;49.350;19.386;2023-09-18T06:39:53;11.27;;;7.30;;
21458;SDS011;10891;49.350;19.386;2023-09-18T06:42:21;9.63;;;7.40;;
21458;SDS011;10891;49.350;19.386;2023-09-18T06:44:49;9.82;;;8.02;;
21458;SDS011;10891;49.350;19.386;2023-09-18T06:47:18;11.80;;;6.82;;
21458;SDS011;10891;49.350;19.386;2023-09-18T06:49:45;9.00;;;6.68;;
21458;SDS011;10891;49.350;19.386;2023-09-18T06:52:14;7.57;;;6.72;;
21458;SDS011;10891;49.350;19.386;2023-09-18T06:54:41;8.30;;;6.97;;
21458;SDS011;10891;49.350;19.386;2023-09-18T06:57:09;11.27;;;7.38;;
21458;SDS011;10891;49.350;19.386;2023-09-18T06:59:37;13.10;;;7.93;;
21458;SDS011;10891;49.350;19.386;2023-09-18T07:02:04;10.13;;;7.22;;
21458;SDS011;10891;49.350;19.386;2023-09-18T07:04:31;11.00;;;8.10;;
21458;SDS011;10891;49.350;19.386;2023-09-18T07:06:59;12.25;;;8.63;;
21458;SDS011;10891;49.350;19.386;2023-09-18T07:09:28;17.75;;;9.65;;
21458;SDS011;10891;49.350;19.386;2023-09-18T07:11:56;14.00;;;9.77;;
21458;SDS011;10891;49.350;19.386;2023-09-18T07:14:23;16.80;;;9.65;;
21458;SDS011;10891;49.350;19.386;2023-09-18T07:16:51;12.32;;;9.30;;
21458;SDS011;10891;49.350;19.386;2023-09-18T07:19:18;14.85;;;9.40;;
21458;SDS011;10891;49.350;19.386;2023-09-18T07:21:45;13.55;;;9.63;;
21458;SDS011;10891;49.350;19.386;2023-09-18T07:24:12;14.60;;;10.13;;
21458;SDS011;10891;49.350;19.386;2023-09-18T07:26:46;14.18;;;9.85;;
21458;SDS011;10891;49.350;19.386;2023-09-18T07:29:13;16.35;;;9.30;;
21458;SDS011;10891;49.350;19.386;2023-09-18T07:31:41;18.63;;;9.43;;
21458;SDS011;10891;49.350;19.386;2023-09-18T07:34:08;22.67;;;11.73;;
21458;SDS011;10891;49.350;19.386;2023-09-18T07:36:35;22.02;;;10.20;;
21458;SDS011;10891;49.350;19.386;2023-09-18T07:39:03;15.75;;;10.88;;
21458;SDS011;10891;49.350;19.386;2023-09-18T07:41:31;19.45;;;14.35;;
21458;SDS011;10891;49.350;19.386;2023-09-18T07:43:59;16.40;;;13.13;;
21458;SDS011;10891;49.350;19.386;2023-09-18T07:46:27;16.35;;;12.73;;
21458;SDS011;10891;49.350;19.386;2023-09-18T07:48:54;16.67;;;12.65;;
21458;SDS011;10891;49.350;19.386;2023-09-18T07:51:21;16.13;;;11.85;;
21458;SDS011;10891;49.350;19.386;2023-09-18T07:53:48;16.70;;;12.30;;
21458;SDS011;10891;49.350;19.386;2023-09-18T07:56:16;15.88;;;11.73;;
21458;SDS011;10891;49.350;19.386;2023-09-18T07:58:43;13.80;;;11.48;;
21458;SDS011;10891;49.350;19.386;2023-09-18T08:01:13;15.32;;;12.27;;
21458;SDS011;10891;49.350;19.386;2023-09-18T08:03:41;14.95;;;11.30;;
21458;SDS011;10891;49.350;19.386;2023-09-18T08:06:08;14.73;;;11.48;;
21458;SDS011;10891;49.350;19.386;2023-09-18T08:08:36;13.88;;;10.85;;
21458;SDS011;10891;49.350;19.386;2023-09-18T08:11:07;13.75;;;11.43;;
21458;SDS011;10891;49.350;19.386;2023-09-18T08:13:34;21.65;;;11.85;;
21458;SDS011;10891;49.350;19.386;2023-09-18T08:16:02;12.82;;;10.65;;
21458;SDS011;10891;49.350;19.386;2023-09-18T08:18:31;13.20;;;10.27;;
21458;SDS011;10891;49.350;19.386;2023-09-18T08:20:59;14.10;;;10.13;;
21458;SDS011;10891;49.350;19.386;2023-09-18T08:23:27;12.13;;;9.15;;
21458;SDS011;10891;49.350;19.386;2023-09-18T08:25:54;11.63;;;10.10;;
21458;SDS011;10891;49.350;19.386;2023-09-18T08:28:22;11.90;;;9.43;;
21458;SDS011;10891;49.350;19.386;2023-09-18T08:30:50;14.95;;;9.15;;
21458;SDS011;10891;49.350;19.386;2023-09-18T08:33:17;12.15;;;9.23;;
21458;SDS011;10891;49.350;19.386;2023-09-18T08:35:45;15.55;;;8.77;;
21458;SDS011;10891;49.350;19.386;2023-09-18T08:38:14;24.83;;;9.02;;
21458;SDS011;10891;49.350;19.386;2023-09-18T08:40:42;12.35;;;8.38;;
21458;SDS011;10891;49.350;19.386;2023-09-18T08:43:10;12.02;;;8.88;;
21458;SDS011;10891;49.350;19.386;2023-09-18T08:45:40;10.05;;;8.07;;
21458;SDS011;10891;49.350;19.386;2023-09-18T08:48:10;11.43;;;8.07;;
21458;SDS011;10891;49.350;19.386;2023-09-18T08:50:38;11.02;;;8.00;;
21458;SDS011;10891;49.350;19.386;2023-09-18T08:53:07;11.02;;;7.65;;
21458;SDS011;10891;49.350;19.386;2023-09-18T08:55:35;10.02;;;7.57;;
21458;SDS011;10891;49.350;19.386;2023-09-18T08:58:02;11.00;;;7.38;;
21458;SDS011;10891;49.350;19.386;2023-09-18T09:00:29;12.00;;;7.43;;
21458;SDS011;10891;49.350;19.386;2023-09-18T09:02:57;12.10;;;8.02;;
21458;SDS011;10891;49.350;19.386;2023-09-18T09:05:24;10.40;;;7.90;;
21458;SDS011;10891;49.350;19.386;2023-09-18T09:07:51;10.38;;;7.13;;
21458;SDS011;10891;49.350;19.386;2023-09-18T09:10:21;11.63;;;6.97;;
21458;SDS011;10891;49.350;19.386;2023-09-18T09:12:49;10.02;;;7.07;;
21458;SDS011;10891;49.350;19.386;2023-09-18T09:15:17;13.55;;;6.55;;
21458;SDS011;10891;49.350;19.386;2023-09-18T09:17:44;11.20;;;7.30;;
21458;SDS011;10891;49.350;19.386;2023-09-18T09:20:13;10.52;;;7.47;;
21458;SDS011;10891;49.350;19.386;2023-09-18T09:22:41;9.95;;;6.68;;
21458;SDS011;10891;49.350;19.386;2023-09-18T09:25:26;8.93;;;7.00;;
21458;SDS011;10891;49.350;19.386;2023-09-18T09:27:56;8.88;;;6.18;;
21458;SDS011;10891;49.350;19.386;2023-09-18T09:30:25;9.98;;;6.43;;
21458;SDS011;10891;49.350;19.386;2023-09-18T09:32:56;7.10;;;6.38;;
21458;SDS011;10891;49.350;19.386;2023-09-18T09:35:28;7.97;;;6.57;;
21458;SDS011;10891;49.350;19.386;2023-09-18T09:37:59;14.45;;;6.45;;
21458;SDS011;10891;49.350;19.386;2023-09-18T09:40:31;7.28;;;6.55;;
21458;SDS011;10891;49.350;19.386;2023-09-18T09:43:00;7.90;;;6.20;;
21458;SDS011;10891;49.350;19.386;2023-09-18T09:45:29;7.95;;;6.13;;
21458;SDS011;10891;49.350;19.386;2023-09-18T09:48:00;9.75;;;6.57;;
21458;SDS011;10891;49.350;19.386;2023-09-18T09:50:29;10.40;;;6.20;;
21458;SDS011;10891;49.350;19.386;2023-09-18T09:52:57;9.48;;;5.70;;
21458;SDS011;10891;49.350;19.386;2023-09-18T09:55:25;9.82;;;5.78;;
21458;SDS011;10891;49.350;19.386;2023-09-18T09:57:55;6.88;;;6.03;;
21458;SDS011;10891;49.350;19.386;2023-09-18T10:00:26;9.30;;;6.03;;
21458;SDS011;10891;49.350;19.386;2023-09-18T10:02:58;7.57;;;6.20;;
21458;SDS011;10891;49.350;19.386;2023-09-18T10:05:26;7.28;;;5.93;;
21458;SDS011;10891;49.350;19.386;2023-09-18T10:07:55;7.53;;;5.80;;
21458;SDS011;10891;49.350;19.386;2023-09-18T10:10:25;7.78;;;6.10;;
21458;SDS011;10891;49.350;19.386;2023-09-18T10:12:54;14.15;;;6.30;;
21458;SDS011;10891;49.350;19.386;2023-09-18T10:15:25;12.18;;;6.50;;
21458;SDS011;10891;49.350;19.386;2023-09-18T10:17:52;13.10;;;6.93;;
21458;SDS011;10891;49.350;19.386;2023-09-18T10:20:24;8.55;;;6.85;;
21458;SDS011;10891;49.350;19.386;2023-09-18T10:22:52;7.82;;;6.00;;
21458;SDS011;10891;49.350;19.386;2023-09-18T10:25:21;7.30;;;6.03;;
21458;SDS011;10891;49.350;19.386;2023-09-18T10:27:51;8.88;;;6.15;;
21458;SDS011;10891;49.350;19.386;2023-09-18T10:30:20;8.18;;;6.05;;
21458;SDS011;10891;49.350;19.386;2023-09-18T10:32:51;10.77;;;6.78;;
21458;SDS011;10891;49.350;19.386;2023-09-18T10:35:20;8.18;;;6.47;;
21458;SDS011;10891;49.350;19.386;2023-09-18T10:37:48;8.77;;;5.85;;
21458;SDS011;10891;49.350;19.386;2023-09-18T10:40:16;7.63;;;6.15;;
21458;SDS011;10891;49.350;19.386;2023-09-18T10:42:45;8.50;;;6.35;;
21458;SDS011;10891;49.350;19.386;2023-09-18T10:45:13;6.35;;;5.75;;
21458;SDS011;10891;49.350;19.386;2023-09-18T10:47:43;12.30;;;6.50;;
21458;SDS011;10891;49.350;19.386;2023-09-18T10:50:22;9.55;;;7.03;;
21458;SDS011;10891;49.350;19.386;2023-09-18T10:52:50;11.23;;;6.18;;
21458;SDS011;10891;49.350;19.386;2023-09-18T10:55:17;10.45;;;6.88;;
21458;SDS011;10891;49.350;19.386;2023-09-18T10:57:51;7.57;;;6.72;;
21458;SDS011;10891;49.350;19.386;2023-09-18T11:00:18;7.20;;;6.47;;
21458;SDS011;10891;49.350;19.386;2023-09-18T11:02:50;7.30;;;6.60;;
21458;SDS011;10891;49.350;19.386;2023-09-18T11:05:30;8.05;;;6.75;;
21458;SDS011;10891;49.350;19.386;2023-09-18T11:10:51;12.68;;;7.72;;
21458;SDS011;10891;49.350;19.386;2023-09-18T11:13:28;7.50;;;6.00;;
21458;SDS011;10891;49.350;19.386;2023-09-18T11:15:58;8.15;;;6.95;;
21458;SDS011;10891;49.350;19.386;2023-09-18T11:18:33;8.00;;;6.82;;
21458;SDS011;10891;49.350;19.386;2023-09-18T11:21:07;10.55;;;6.70;;
21458;SDS011;10891;49.350;19.386;2023-09-18T11:23:38;9.65;;;6.63;;
21458;SDS011;10891;49.350;19.386;2023-09-18T11:26:08;10.00;;;6.65;;
21458;SDS011;10891;49.350;19.386;2023-09-18T11:28:35;9.23;;;6.88;;
21458;SDS011;10891;49.350;19.386;2023-09-18T11:31:03;10.68;;;6.53;;
21458;SDS011;10891;49.350;19.386;2023-09-18T11:33:32;10.85;;;6.20;;
21458;SDS011;10891;49.350;19.386;2023-09-18T11:36:03;7.85;;;6.38;;
21458;SDS011;10891;49.350;19.386;2023-09-18T11:38:32;7.97;;;6.38;;
21458;SDS011;10891;49.350;19.386;2023-09-18T11:41:01;6.50;;;5.60;;
21458;SDS011;10891;49.350;19.386;2023-09-18T11:43:29;8.43;;;6.00;;
21458;SDS011;10891;49.350;19.386;2023-09-18T11:45:56;7.30;;;5.43;;
21458;SDS011;10891;49.350;19.386;2023-09-18T11:48:24;6.75;;;5.28;;
21458;SDS011;10891;49.350;19.386;2023-09-18T11:50:56;10.10;;;5.78;;
21458;SDS011;10891;49.350;19.386;2023-09-18T11:53:26;7.68;;;5.72;;
21458;SDS011;10891;49.350;19.386;2023-09-18T11:55:53;5.22;;;4.72;;
21458;SDS011;10891;49.350;19.386;2023-09-18T11:58:21;6.35;;;5.18;;
21458;SDS011;10891;49.350;19.386;2023-09-18T12:00:49;7.70;;;5.13;;
21458;SDS011;10891;49.350;19.386;2023-09-18T12:03:17;8.18;;;5.47;;
21458;SDS011;10891;49.350;19.386;2023-09-18T12:05:53;6.07;;;4.75;;
21458;SDS011;10891;49.350;19.386;2023-09-18T12:08:21;6.13;;;4.60;;
21458;SDS011;10891;49.350;19.386;2023-09-18T12:10:52;5.93;;;5.20;;
21458;SDS011;10891;49.350;19.386;2023-09-18T12:13:20;7.47;;;5.05;;
21458;SDS011;10891;49.350;19.386;2023-09-18T12:15:47;7.45;;;5.22;;
21458;SDS011;10891;49.350;19.386;2023-09-18T12:18:14;8.52;;;5.72;;
21458;SDS011;10891;49.350;19.386;2023-09-18T12:20:46;7.03;;;5.15;;
21458;SDS011;10891;49.350;19.386;2023-09-18T12:23:13;8.65;;;5.15;;
21458;SDS011;10891;49.350;19.386;2023-09-18T12:25:40;5.63;;;4.13;;
21458;SDS011;10891;49.350;19.386;2023-09-18T12:28:09;8.18;;;4.70;;
21458;SDS011;10891;49.350;19.386;2023-09-18T12:30:37;6.07;;;4.47;;
21458;SDS011;10891;49.350;19.386;2023-09-18T12:33:04;6.25;;;4.55;;
21458;SDS011;10891;49.350;19.386;2023-09-18T12:35:32;6.30;;;4.40;;
21458;SDS011;10891;49.350;19.386;2023-09-18T12:37:59;4.80;;;3.92;;
21458;SDS011;10891;49.350;19.386;2023-09-18T12:40:29;8.00;;;4.63;;
21458;SDS011;10891;49.350;19.386;2023-09-18T12:42:58;5.32;;;3.83;;
21458;SDS011;10891;49.350;19.386;2023-09-18T12:45:27;4.97;;;3.95;;
21458;SDS011;10891;49.350;19.386;2023-09-18T12:47:56;4.90;;;4.22;;
21458;SDS011;10891;49.350;19.386;2023-09-18T12:50:24;6.97;;;4.47;;
21458;SDS011;10891;49.350;19.386;2023-09-18T12:52:51;8.68;;;4.30;;
21458;SDS011;10891;49.350;19.386;2023-09-18T12:55:22;6.35;;;4.57;;
21458;SDS011;10891;49.350;19.386;2023-09-18T12:57:50;5.88;;;4.40;;
21458;SDS011;10891;49.350;19.386;2023-09-18T13:00:17;6.95;;;4.85;;
21458;SDS011;10891;49.350;19.386;2023-09-18T13:02:49;6.05;;;4.38;;
21458;SDS011;10891;49.350;19.386;2023-09-18T13:05:20;5.95;;;4.25;;
21458;SDS011;10891;49.350;19.386;2023-09-18T13:07:51;6.75;;;4.55;;
21458;SDS011;10891;49.350;19.386;2023-09-18T13:10:18;5.78;;;4.65;;
21458;SDS011;10891;49.350;19.386;2023-09-18T13:12:47;4.95;;;4.28;;
21458;SDS011;10891;49.350;19.386;2023-09-18T13:15:23;5.88;;;4.55;;
21458;SDS011;10891;49.350;19.386;2023-09-18T13:17:53;6.35;;;5.00;;
21458;SDS011;10891;49.350;19.386;2023-09-18T13:20:21;7.32;;;5.20;;
21458;SDS011;10891;49.350;19.386;2023-09-18T13:22:50;8.85;;;5.40;;
21458;SDS011;10891;49.350;19.386;2023-09-18T13:25:21;6.60;;;5.30;;
21458;SDS011;10891;49.350;19.386;2023-09-18T13:27:49;7.32;;;4.85;;
21458;SDS011;10891;49.350;19.386;2023-09-18T13:30:17;6.93;;;4.60;;
21458;SDS011;10891;49.350;19.386;2023-09-18T13:32:46;10.80;;;5.68;;
21458;SDS011;10891;49.350;19.386;2023-09-18T13:35:16;6.22;;;5.63;;
21458;SDS011;10891;49.350;19.386;2023-09-18T13:37:43;9.50;;;5.60;;
21458;SDS011;10891;49.350;19.386;2023-09-18T13:40:11;7.57;;;6.03;;
21458;SDS011;10891;49.350;19.386;2023-09-18T13:42:38;6.63;;;5.90;;
21458;SDS011;10891;49.350;19.386;2023-09-18T13:45:06;9.07;;;6.60;;
21458;SDS011;10891;49.350;19.386;2023-09-18T13:47:34;7.28;;;5.95;;
21458;SDS011;10891;49.350;19.386;2023-09-18T13:50:01;9.63;;;6.60;;
21458;SDS011;10891;49.350;19.386;2023-09-18T13:52:31;11.00;;;6.30;;
21458;SDS011;10891;49.350;19.386;2023-09-18T13:54:59;10.35;;;6.55;;
21458;SDS011;10891;49.350;19.386;2023-09-18T13:57:27;16.85;;;6.95;;
21458;SDS011;10891;49.350;19.386;2023-09-18T13:59:54;10.57;;;7.35;;
21458;SDS011;10891;49.350;19.386;2023-09-18T14:02:21;9.20;;;7.13;;
21458;SDS011;10891;49.350;19.386;2023-09-18T14:04:52;11.50;;;8.00;;
21458;SDS011;10891;49.350;19.386;2023-09-18T14:07:19;8.50;;;7.15;;
21458;SDS011;10891;49.350;19.386;2023-09-18T14:09:48;11.43;;;7.60;;
21458;SDS011;10891;49.350;19.386;2023-09-18T14:12:15;10.38;;;8.18;;
21458;SDS011;10891;49.350;19.386;2023-09-18T14:14:43;8.43;;;7.60;;
21458;SDS011;10891;49.350;19.386;2023-09-18T14:17:11;9.88;;;8.27;;
21458;SDS011;10891;49.350;19.386;2023-09-18T14:19:38;12.25;;;7.97;;
21458;SDS011;10891;49.350;19.386;2023-09-18T14:22:05;10.90;;;8.55;;
21458;SDS011;10891;49.350;19.386;2023-09-18T14:24:33;12.63;;;8.35;;
21458;SDS011;10891;49.350;19.386;2023-09-18T14:27:01;12.30;;;7.38;;
21458;SDS011;10891;49.350;19.386;2023-09-18T14:29:29;10.77;;;8.02;;